sensor_id;sensor_type;location;lat;lon;timestamp;P1;durP1;ratioP1;P2;durP2;ratioP2
32946;SDS011;54465;51.230;22.504;2023-11-19T00:04:37;22.25;;;11.93;;
32946;SDS011;54465;51.230;22.504;2023-11-19T00:09:39;28.60;;;13.32;;
32946;SDS011;54465;51.230;22.504;2023-11-19T00:14:40;27.48;;;12.68;;
32946;SDS011;54465;51.230;22.504;2023-11-19T00:19:41;24.75;;;12.65;;
32946;SDS011;54465;51.230;22.504;2023-11-19T00:24:41;28.27;;;14.02;;
32946;SDS011;54465;51.230;22.504;2023-11-19T00:29:42;29.73;;;13.65;;
32946;SDS011;54465;51.230;22.504;2023-11-19T00:34:45;28.98;;;13.90;;
32946;SDS011;54465;51.230;22.504;2023-11-19T00:39:48;25.33;;;12.15;;
32946;SDS011;54465;51.230;22.504;2023-11-19T00:44:48;31.88;;;13.90;;
32946;SDS011;54465;51.230;22.504;2023-11-19T00:49:49;28.05;;;13.40;;
32946;SDS011;54465;51.230;22.504;2023-11-19T00:54:50;29.85;;;12.55;;
32946;SDS011;54465;51.230;22.504;2023-11-19T00:59:51;31.48;;;13.30;;
32946;SDS011;54465;51.230;22.504;2023-11-19T01:04:52;25.17;;;13.77;;
32946;SDS011;54465;51.230;22.504;2023-11-19T01:09:53;30.63;;;14.30;;
32946;SDS011;54465;51.230;22.504;2023-11-19T01:14:54;29.83;;;13.70;;
32946;SDS011;54465;51.230;22.504;2023-11-19T01:19:56;24.42;;;11.25;;
32946;SDS011;54465;51.230;22.504;2023-11-19T01:24:56;20.58;;;11.68;;
32946;SDS011;54465;51.230;22.504;2023-11-19T01:29:58;29.65;;;12.07;;
32946;SDS011;54465;51.230;22.504;2023-11-19T01:34:59;26.60;;;11.80;;
32946;SDS011;54465;51.230;22.504;2023-11-19T01:40:00;26.42;;;11.68;;
32946;SDS011;54465;51.230;22.504;2023-11-19T01:45:00;21.50;;;10.38;;
32946;SDS011;54465;51.230;22.504;2023-11-19T01:50:07;26.20;;;11.68;;
32946;SDS011;54465;51.230;22.504;2023-11-19T01:55:08;30.17;;;11.98;;
32946;SDS011;54465;51.230;22.504;2023-11-19T02:00:12;20.23;;;9.57;;
32946;SDS011;54465;51.230;22.504;2023-11-19T02:05:17;22.38;;;9.55;;
32946;SDS011;54465;51.230;22.504;2023-11-19T02:10:18;17.35;;;9.00;;
32946;SDS011;54465;51.230;22.504;2023-11-19T02:15:19;19.95;;;10.02;;
32946;SDS011;54465;51.230;22.504;2023-11-19T02:20:20;21.80;;;10.52;;
32946;SDS011;54465;51.230;22.504;2023-11-19T02:25:23;30.35;;;11.48;;
32946;SDS011;54465;51.230;22.504;2023-11-19T02:30:27;24.75;;;10.07;;
32946;SDS011;54465;51.230;22.504;2023-11-19T02:35:28;16.73;;;8.95;;
32946;SDS011;54465;51.230;22.504;2023-11-19T02:40:31;20.42;;;9.52;;
32946;SDS011;54465;51.230;22.504;2023-11-19T02:45:32;21.30;;;8.80;;
32946;SDS011;54465;51.230;22.504;2023-11-19T02:50:33;12.00;;;7.45;;
32946;SDS011;54465;51.230;22.504;2023-11-19T02:55:33;19.63;;;8.23;;
32946;SDS011;54465;51.230;22.504;2023-11-19T03:00:39;20.42;;;9.15;;
32946;SDS011;54465;51.230;22.504;2023-11-19T03:05:48;22.48;;;8.02;;
32946;SDS011;54465;51.230;22.504;2023-11-19T03:10:48;18.98;;;8.98;;
32946;SDS011;54465;51.230;22.504;2023-11-19T03:15:49;18.88;;;8.20;;
32946;SDS011;54465;51.230;22.504;2023-11-19T03:20:50;14.93;;;8.05;;
32946;SDS011;54465;51.230;22.504;2023-11-19T03:25:52;15.00;;;7.65;;
32946;SDS011;54465;51.230;22.504;2023-11-19T03:30:53;15.93;;;7.38;;
32946;SDS011;54465;51.230;22.504;2023-11-19T03:35:54;17.90;;;7.93;;
32946;SDS011;54465;51.230;22.504;2023-11-19T03:40:56;16.83;;;8.82;;
32946;SDS011;54465;51.230;22.504;2023-11-19T03:45:57;18.23;;;9.88;;
32946;SDS011;54465;51.230;22.504;2023-11-19T03:50:57;21.80;;;9.40;;
32946;SDS011;54465;51.230;22.504;2023-11-19T03:55:58;26.20;;;10.90;;
32946;SDS011;54465;51.230;22.504;2023-11-19T04:00:59;27.70;;;11.25;;
32946;SDS011;54465;51.230;22.504;2023-11-19T04:06:00;28.80;;;11.50;;
32946;SDS011;54465;51.230;22.504;2023-11-19T04:11:03;23.98;;;10.98;;
32946;SDS011;54465;51.230;22.504;2023-11-19T04:16:04;22.65;;;10.75;;
32946;SDS011;54465;51.230;22.504;2023-11-19T04:21:08;32.95;;;11.63;;
32946;SDS011;54465;51.230;22.504;2023-11-19T04:26:08;23.35;;;10.38;;
32946;SDS011;54465;51.230;22.504;2023-11-19T04:31:09;36.50;;;10.77;;
32946;SDS011;54465;51.230;22.504;2023-11-19T04:36:10;26.77;;;10.88;;
32946;SDS011;54465;51.230;22.504;2023-11-19T04:41:10;25.58;;;10.27;;
32946;SDS011;54465;51.230;22.504;2023-11-19T04:46:11;17.63;;;9.57;;
32946;SDS011;54465;51.230;22.504;2023-11-19T04:51:11;21.85;;;9.88;;
32946;SDS011;54465;51.230;22.504;2023-11-19T04:56:12;44.22;;;11.60;;
32946;SDS011;54465;51.230;22.504;2023-11-19T05:01:14;24.75;;;11.02;;
32946;SDS011;54465;51.230;22.504;2023-11-19T05:06:18;37.80;;;11.02;;
32946;SDS011;54465;51.230;22.504;2023-11-19T05:11:18;30.88;;;10.27;;
32946;SDS011;54465;51.230;22.504;2023-11-19T05:16:20;59.03;;;11.88;;
32946;SDS011;54465;51.230;22.504;2023-11-19T05:21:21;34.70;;;11.30;;
32946;SDS011;54465;51.230;22.504;2023-11-19T05:26:23;26.70;;;11.10;;
32946;SDS011;54465;51.230;22.504;2023-11-19T05:31:24;42.13;;;11.07;;
32946;SDS011;54465;51.230;22.504;2023-11-19T05:36:24;31.42;;;10.73;;
32946;SDS011;54465;51.230;22.504;2023-11-19T05:41:25;69.63;;;12.57;;
32946;SDS011;54465;51.230;22.504;2023-11-19T05:46:25;26.70;;;10.73;;
32946;SDS011;54465;51.230;22.504;2023-11-19T05:51:27;22.20;;;10.38;;
32946;SDS011;54465;51.230;22.504;2023-11-19T05:56:27;19.63;;;9.93;;
32946;SDS011;54465;51.230;22.504;2023-11-19T06:01:35;19.33;;;9.60;;
32946;SDS011;54465;51.230;22.504;2023-11-19T06:06:36;18.40;;;9.07;;
32946;SDS011;54465;51.230;22.504;2023-11-19T06:11:37;19.02;;;9.30;;
32946;SDS011;54465;51.230;22.504;2023-11-19T06:16:38;17.63;;;9.05;;
32946;SDS011;54465;51.230;22.504;2023-11-19T06:21:40;12.77;;;7.32;;
32946;SDS011;54465;51.230;22.504;2023-11-19T06:26:41;14.63;;;7.28;;
32946;SDS011;54465;51.230;22.504;2023-11-19T06:31:41;15.63;;;8.13;;
32946;SDS011;54465;51.230;22.504;2023-11-19T06:36:42;14.38;;;8.15;;
32946;SDS011;54465;51.230;22.504;2023-11-19T06:41:45;15.52;;;8.07;;
32946;SDS011;54465;51.230;22.504;2023-11-19T06:46:48;15.63;;;8.15;;
32946;SDS011;54465;51.230;22.504;2023-11-19T06:51:48;17.13;;;8.23;;
32946;SDS011;54465;51.230;22.504;2023-11-19T06:56:49;16.55;;;8.23;;
32946;SDS011;54465;51.230;22.504;2023-11-19T07:01:50;19.58;;;9.05;;
32946;SDS011;54465;51.230;22.504;2023-11-19T07:06:51;16.65;;;8.77;;
32946;SDS011;54465;51.230;22.504;2023-11-19T07:11:53;16.27;;;8.68;;
32946;SDS011;54465;51.230;22.504;2023-11-19T07:16:54;18.15;;;8.32;;
32946;SDS011;54465;51.230;22.504;2023-11-19T07:21:55;16.38;;;8.88;;
32946;SDS011;54465;51.230;22.504;2023-11-19T07:26:56;16.15;;;8.50;;
32946;SDS011;54465;51.230;22.504;2023-11-19T07:31:57;21.95;;;9.45;;
32946;SDS011;54465;51.230;22.504;2023-11-19T07:36:57;16.95;;;8.75;;
32946;SDS011;54465;51.230;22.504;2023-11-19T07:42:02;16.92;;;8.85;;
32946;SDS011;54465;51.230;22.504;2023-11-19T07:47:03;18.27;;;9.48;;
32946;SDS011;54465;51.230;22.504;2023-11-19T07:52:04;17.48;;;9.27;;
32946;SDS011;54465;51.230;22.504;2023-11-19T07:57:05;16.60;;;8.40;;
32946;SDS011;54465;51.230;22.504;2023-11-19T08:02:07;17.05;;;7.90;;
32946;SDS011;54465;51.230;22.504;2023-11-19T08:07:08;13.20;;;7.75;;
32946;SDS011;54465;51.230;22.504;2023-11-19T08:12:08;13.75;;;7.22;;
32946;SDS011;54465;51.230;22.504;2023-11-19T08:17:09;13.68;;;7.10;;
32946;SDS011;54465;51.230;22.504;2023-11-19T08:22:11;14.23;;;8.13;;
32946;SDS011;54465;51.230;22.504;2023-11-19T08:27:12;13.45;;;7.60;;
32946;SDS011;54465;51.230;22.504;2023-11-19T08:32:13;14.77;;;7.88;;
32946;SDS011;54465;51.230;22.504;2023-11-19T08:37:13;15.55;;;7.97;;
32946;SDS011;54465;51.230;22.504;2023-11-19T08:42:14;14.48;;;8.00;;
32946;SDS011;54465;51.230;22.504;2023-11-19T08:47:16;11.98;;;7.05;;
32946;SDS011;54465;51.230;22.504;2023-11-19T08:52:20;13.68;;;7.57;;
32946;SDS011;54465;51.230;22.504;2023-11-19T08:57:20;12.85;;;7.30;;
32946;SDS011;54465;51.230;22.504;2023-11-19T09:02:21;14.23;;;6.80;;
32946;SDS011;54465;51.230;22.504;2023-11-19T09:07:22;14.57;;;7.57;;
32946;SDS011;54465;51.230;22.504;2023-11-19T09:12:23;11.23;;;6.32;;
32946;SDS011;54465;51.230;22.504;2023-11-19T09:17:24;14.48;;;7.18;;
32946;SDS011;54465;51.230;22.504;2023-11-19T09:22:25;11.93;;;7.07;;
32946;SDS011;54465;51.230;22.504;2023-11-19T09:27:26;12.75;;;7.22;;
32946;SDS011;54465;51.230;22.504;2023-11-19T09:32:26;12.60;;;6.60;;
32946;SDS011;54465;51.230;22.504;2023-11-19T09:37:27;13.15;;;7.72;;
32946;SDS011;54465;51.230;22.504;2023-11-19T09:42:28;13.77;;;8.32;;
32946;SDS011;54465;51.230;22.504;2023-11-19T09:47:29;11.25;;;6.82;;
32946;SDS011;54465;51.230;22.504;2023-11-19T09:52:30;10.57;;;6.10;;
32946;SDS011;54465;51.230;22.504;2023-11-19T09:57:31;8.30;;;5.60;;
32946;SDS011;54465;51.230;22.504;2023-11-19T10:02:33;12.52;;;6.35;;
32946;SDS011;54465;51.230;22.504;2023-11-19T10:07:37;9.25;;;6.07;;
32946;SDS011;54465;51.230;22.504;2023-11-19T10:12:38;9.27;;;6.47;;
32946;SDS011;54465;51.230;22.504;2023-11-19T10:17:39;8.35;;;5.45;;
32946;SDS011;54465;51.230;22.504;2023-11-19T10:22:40;11.63;;;6.70;;
32946;SDS011;54465;51.230;22.504;2023-11-19T10:27:40;9.23;;;5.95;;
32946;SDS011;54465;51.230;22.504;2023-11-19T10:32:41;11.32;;;6.45;;
32946;SDS011;54465;51.230;22.504;2023-11-19T10:37:41;12.43;;;6.88;;
32946;SDS011;54465;51.230;22.504;2023-11-19T10:42:42;10.27;;;6.80;;
32946;SDS011;54465;51.230;22.504;2023-11-19T10:47:43;10.55;;;6.47;;
32946;SDS011;54465;51.230;22.504;2023-11-19T10:52:43;11.13;;;6.32;;
32946;SDS011;54465;51.230;22.504;2023-11-19T10:57:44;8.88;;;5.50;;
32946;SDS011;54465;51.230;22.504;2023-11-19T11:02:49;12.07;;;6.70;;
32946;SDS011;54465;51.230;22.504;2023-11-19T11:07:52;10.20;;;6.07;;
32946;SDS011;54465;51.230;22.504;2023-11-19T11:12:53;12.45;;;6.47;;
32946;SDS011;54465;51.230;22.504;2023-11-19T11:18:02;9.82;;;5.72;;
32946;SDS011;54465;51.230;22.504;2023-11-19T11:23:08;10.88;;;6.85;;
32946;SDS011;54465;51.230;22.504;2023-11-19T11:38:31;13.00;;;6.68;;
32946;SDS011;54465;51.230;22.504;2023-11-19T11:43:51;9.85;;;6.60;;
32946;SDS011;54465;51.230;22.504;2023-11-19T11:48:52;10.25;;;6.72;;
32946;SDS011;54465;51.230;22.504;2023-11-19T11:53:54;11.88;;;6.75;;
32946;SDS011;54465;51.230;22.504;2023-11-19T11:58:58;10.15;;;6.43;;
32946;SDS011;54465;51.230;22.504;2023-11-19T12:04:01;12.63;;;6.68;;
32946;SDS011;54465;51.230;22.504;2023-11-19T12:09:02;12.10;;;6.60;;
32946;SDS011;54465;51.230;22.504;2023-11-19T12:14:03;10.27;;;6.25;;
32946;SDS011;54465;51.230;22.504;2023-11-19T12:19:06;11.23;;;6.53;;
32946;SDS011;54465;51.230;22.504;2023-11-19T12:24:08;11.32;;;7.03;;
32946;SDS011;54465;51.230;22.504;2023-11-19T12:29:09;10.52;;;6.88;;
32946;SDS011;54465;51.230;22.504;2023-11-19T12:34:10;10.43;;;6.82;;
32946;SDS011;54465;51.230;22.504;2023-11-19T12:39:12;14.57;;;9.07;;
32946;SDS011;54465;51.230;22.504;2023-11-19T12:44:13;11.95;;;8.18;;
32946;SDS011;54465;51.230;22.504;2023-11-19T12:49:13;14.68;;;8.45;;
32946;SDS011;54465;51.230;22.504;2023-11-19T12:54:14;13.02;;;8.27;;
32946;SDS011;54465;51.230;22.504;2023-11-19T12:59:15;16.67;;;8.85;;
32946;SDS011;54465;51.230;22.504;2023-11-19T13:04:17;17.38;;;9.30;;
32946;SDS011;54465;51.230;22.504;2023-11-19T13:09:25;15.13;;;8.27;;
32946;SDS011;54465;51.230;22.504;2023-11-19T13:14:38;17.40;;;10.27;;
32946;SDS011;54465;51.230;22.504;2023-11-19T13:19:38;17.15;;;9.80;;
32946;SDS011;54465;51.230;22.504;2023-11-19T13:24:39;17.20;;;7.72;;
32946;SDS011;54465;51.230;22.504;2023-11-19T13:29:40;14.85;;;8.45;;
32946;SDS011;54465;51.230;22.504;2023-11-19T13:34:41;16.70;;;9.32;;
32946;SDS011;54465;51.230;22.504;2023-11-19T13:39:42;15.05;;;8.05;;
32946;SDS011;54465;51.230;22.504;2023-11-19T13:44:43;16.15;;;9.23;;
32946;SDS011;54465;51.230;22.504;2023-11-19T13:49:46;16.33;;;9.10;;
32946;SDS011;54465;51.230;22.504;2023-11-19T13:54:47;15.98;;;9.38;;
32946;SDS011;54465;51.230;22.504;2023-11-19T13:59:48;15.52;;;8.10;;
32946;SDS011;54465;51.230;22.504;2023-11-19T14:04:51;14.40;;;7.90;;
32946;SDS011;54465;51.230;22.504;2023-11-19T14:09:52;15.48;;;8.35;;
32946;SDS011;54465;51.230;22.504;2023-11-19T14:14:54;14.98;;;8.68;;
32946;SDS011;54465;51.230;22.504;2023-11-19T14:19:55;12.98;;;7.68;;
32946;SDS011;54465;51.230;22.504;2023-11-19T14:24:55;14.05;;;7.53;;
32946;SDS011;54465;51.230;22.504;2023-11-19T14:29:57;12.88;;;7.75;;
32946;SDS011;54465;51.230;22.504;2023-11-19T14:34:58;10.25;;;7.50;;
32946;SDS011;54465;51.230;22.504;2023-11-19T14:39:59;12.90;;;7.88;;
32946;SDS011;54465;51.230;22.504;2023-11-19T14:45:00;16.85;;;8.75;;
32946;SDS011;54465;51.230;22.504;2023-11-19T14:50:01;14.07;;;8.70;;
32946;SDS011;54465;51.230;22.504;2023-11-19T14:55:03;15.65;;;9.25;;
32946;SDS011;54465;51.230;22.504;2023-11-19T15:00:05;13.32;;;8.13;;
32946;SDS011;54465;51.230;22.504;2023-11-19T15:05:16;15.52;;;9.10;;
32946;SDS011;54465;51.230;22.504;2023-11-19T15:10:17;16.98;;;8.77;;
32946;SDS011;54465;51.230;22.504;2023-11-19T15:15:17;17.95;;;9.73;;
32946;SDS011;54465;51.230;22.504;2023-11-19T15:20:18;19.85;;;9.38;;
32946;SDS011;54465;51.230;22.504;2023-11-19T15:25:19;16.67;;;9.98;;
32946;SDS011;54465;51.230;22.504;2023-11-19T15:30:20;17.42;;;10.20;;
32946;SDS011;54465;51.230;22.504;2023-11-19T15:35:23;17.38;;;10.20;;
32946;SDS011;54465;51.230;22.504;2023-11-19T15:40:23;18.83;;;10.27;;
32946;SDS011;54465;51.230;22.504;2023-11-19T15:45:24;18.20;;;10.35;;
32946;SDS011;54465;51.230;22.504;2023-11-19T15:50:25;20.23;;;10.60;;
32946;SDS011;54465;51.230;22.504;2023-11-19T15:55:26;23.02;;;12.10;;
32946;SDS011;54465;51.230;22.504;2023-11-19T16:00:27;17.38;;;9.93;;
32946;SDS011;54465;51.230;22.504;2023-11-19T16:05:29;17.80;;;10.27;;
32946;SDS011;54465;51.230;22.504;2023-11-19T16:10:29;17.35;;;9.80;;
32946;SDS011;54465;51.230;22.504;2023-11-19T16:15:31;19.30;;;10.80;;
32946;SDS011;54465;51.230;22.504;2023-11-19T16:20:31;14.77;;;8.63;;
32946;SDS011;54465;51.230;22.504;2023-11-19T16:25:35;15.68;;;9.35;;
32946;SDS011;54465;51.230;22.504;2023-11-19T16:30:38;16.20;;;10.13;;
32946;SDS011;54465;51.230;22.504;2023-11-19T16:35:38;17.75;;;9.75;;
32946;SDS011;54465;51.230;22.504;2023-11-19T16:40:40;17.05;;;9.13;;
32946;SDS011;54465;51.230;22.504;2023-11-19T16:45:46;14.85;;;9.68;;
32946;SDS011;54465;51.230;22.504;2023-11-19T16:50:47;15.13;;;8.75;;
32946;SDS011;54465;51.230;22.504;2023-11-19T16:55:49;12.88;;;7.82;;
32946;SDS011;54465;51.230;22.504;2023-11-19T17:00:50;13.98;;;8.60;;
32946;SDS011;54465;51.230;22.504;2023-11-19T17:05:53;14.10;;;8.23;;
32946;SDS011;54465;51.230;22.504;2023-11-19T17:10:55;14.10;;;8.85;;
32946;SDS011;54465;51.230;22.504;2023-11-19T17:15:56;13.50;;;8.57;;
32946;SDS011;54465;51.230;22.504;2023-11-19T17:20:57;13.85;;;8.63;;
32946;SDS011;54465;51.230;22.504;2023-11-19T17:25:58;15.35;;;9.02;;
32946;SDS011;54465;51.230;22.504;2023-11-19T17:30:59;13.13;;;8.88;;
32946;SDS011;54465;51.230;22.504;2023-11-19T17:36:01;14.02;;;8.65;;
32946;SDS011;54465;51.230;22.504;2023-11-19T17:41:02;14.32;;;8.60;;
32946;SDS011;54465;51.230;22.504;2023-11-19T17:46:05;13.02;;;9.13;;
32946;SDS011;54465;51.230;22.504;2023-11-19T17:51:06;14.43;;;8.98;;
32946;SDS011;54465;51.230;22.504;2023-11-19T17:56:08;15.80;;;8.68;;
32946;SDS011;54465;51.230;22.504;2023-11-19T18:01:08;16.95;;;9.07;;
32946;SDS011;54465;51.230;22.504;2023-11-19T18:06:15;14.70;;;8.87;;
32946;SDS011;54465;51.230;22.504;2023-11-19T18:11:19;15.07;;;8.30;;
32946;SDS011;54465;51.230;22.504;2023-11-19T18:16:22;15.95;;;8.57;;
32946;SDS011;54465;51.230;22.504;2023-11-19T18:21:24;14.02;;;8.57;;
32946;SDS011;54465;51.230;22.504;2023-11-19T18:26:25;14.40;;;8.43;;
32946;SDS011;54465;51.230;22.504;2023-11-19T18:31:27;12.93;;;7.88;;
32946;SDS011;54465;51.230;22.504;2023-11-19T18:36:33;13.07;;;8.10;;
32946;SDS011;54465;51.230;22.504;2023-11-19T18:41:35;12.40;;;8.10;;
32946;SDS011;54465;51.230;22.504;2023-11-19T18:46:37;13.45;;;7.30;;
32946;SDS011;54465;51.230;22.504;2023-11-19T18:51:38;10.18;;;7.10;;
32946;SDS011;54465;51.230;22.504;2023-11-19T18:56:41;13.13;;;7.60;;
32946;SDS011;54465;51.230;22.504;2023-11-19T19:01:41;11.68;;;6.93;;
32946;SDS011;54465;51.230;22.504;2023-11-19T19:06:49;9.88;;;7.15;;
32946;SDS011;54465;51.230;22.504;2023-11-19T19:11:49;11.77;;;7.93;;
32946;SDS011;54465;51.230;22.504;2023-11-19T19:16:50;12.32;;;7.45;;
32946;SDS011;54465;51.230;22.504;2023-11-19T19:21:52;11.48;;;7.78;;
32946;SDS011;54465;51.230;22.504;2023-11-19T19:26:53;14.43;;;8.48;;
32946;SDS011;54465;51.230;22.504;2023-11-19T19:31:54;13.52;;;8.00;;
32946;SDS011;54465;51.230;22.504;2023-11-19T19:36:55;11.30;;;7.00;;
32946;SDS011;54465;51.230;22.504;2023-11-19T19:41:57;10.48;;;6.75;;
32946;SDS011;54465;51.230;22.504;2023-11-19T19:46:58;10.50;;;6.75;;
32946;SDS011;54465;51.230;22.504;2023-11-19T19:52:00;14.85;;;8.80;;
32946;SDS011;54465;51.230;22.504;2023-11-19T19:57:00;14.60;;;8.88;;
32946;SDS011;54465;51.230;22.504;2023-11-19T20:02:01;16.63;;;9.20;;
32946;SDS011;54465;51.230;22.504;2023-11-19T20:07:07;19.67;;;9.80;;
32946;SDS011;54465;51.230;22.504;2023-11-19T20:12:09;17.52;;;9.95;;
32946;SDS011;54465;51.230;22.504;2023-11-19T20:17:11;19.17;;;9.70;;
32946;SDS011;54465;51.230;22.504;2023-11-19T20:22:12;17.00;;;9.00;;
32946;SDS011;54465;51.230;22.504;2023-11-19T20:27:14;14.98;;;7.93;;
32946;SDS011;54465;51.230;22.504;2023-11-19T20:32:16;17.52;;;8.40;;
32946;SDS011;54465;51.230;22.504;2023-11-19T20:37:19;10.43;;;7.30;;
32946;SDS011;54465;51.230;22.504;2023-11-19T20:42:20;14.68;;;7.90;;
32946;SDS011;54465;51.230;22.504;2023-11-19T20:47:22;11.52;;;7.65;;
32946;SDS011;54465;51.230;22.504;2023-11-19T20:52:23;15.10;;;8.65;;
32946;SDS011;54465;51.230;22.504;2023-11-19T20:57:23;15.40;;;9.18;;
32946;SDS011;54465;51.230;22.504;2023-11-19T21:02:24;15.82;;;8.93;;
32946;SDS011;54465;51.230;22.504;2023-11-19T21:07:27;15.15;;;9.00;;
32946;SDS011;54465;51.230;22.504;2023-11-19T21:12:27;13.60;;;8.68;;
32946;SDS011;54465;51.230;22.504;2023-11-19T21:17:28;12.73;;;7.63;;
32946;SDS011;54465;51.230;22.504;2023-11-19T21:22:29;12.85;;;8.02;;
32946;SDS011;54465;51.230;22.504;2023-11-19T21:27:29;14.20;;;8.77;;
32946;SDS011;54465;51.230;22.504;2023-11-19T21:32:33;15.75;;;8.35;;
32946;SDS011;54465;51.230;22.504;2023-11-19T21:37:33;15.32;;;8.23;;
32946;SDS011;54465;51.230;22.504;2023-11-19T21:42:34;15.32;;;7.97;;
32946;SDS011;54465;51.230;22.504;2023-11-19T21:47:35;14.55;;;7.70;;
32946;SDS011;54465;51.230;22.504;2023-11-19T21:52:35;14.00;;;8.63;;
32946;SDS011;54465;51.230;22.504;2023-11-19T21:57:36;12.57;;;7.65;;
32946;SDS011;54465;51.230;22.504;2023-11-19T22:02:38;11.63;;;7.93;;
32946;SDS011;54465;51.230;22.504;2023-11-19T22:07:39;12.07;;;6.95;;
32946;SDS011;54465;51.230;22.504;2023-11-19T22:12:39;12.20;;;7.70;;
32946;SDS011;54465;51.230;22.504;2023-11-19T22:17:41;9.80;;;6.90;;
32946;SDS011;54465;51.230;22.504;2023-11-19T22:22:42;12.65;;;7.20;;
32946;SDS011;54465;51.230;22.504;2023-11-19T22:27:43;11.70;;;6.47;;
32946;SDS011;54465;51.230;22.504;2023-11-19T22:32:44;9.98;;;7.30;;
32946;SDS011;54465;51.230;22.504;2023-11-19T22:37:44;11.98;;;6.90;;
32946;SDS011;54465;51.230;22.504;2023-11-19T22:42:45;11.27;;;6.50;;
32946;SDS011;54465;51.230;22.504;2023-11-19T22:47:45;10.00;;;5.88;;
32946;SDS011;54465;51.230;22.504;2023-11-19T22:52:46;8.43;;;5.43;;
32946;SDS011;54465;51.230;22.504;2023-11-19T22:57:46;9.07;;;6.30;;
32946;SDS011;54465;51.230;22.504;2023-11-19T23:02:47;11.63;;;6.75;;
32946;SDS011;54465;51.230;22.504;2023-11-19T23:07:49;14.90;;;5.78;;
32946;SDS011;54465;51.230;22.504;2023-11-19T23:12:49;9.48;;;5.43;;
32946;SDS011;54465;51.230;22.504;2023-11-19T23:17:50;8.25;;;5.32;;
32946;SDS011;54465;51.230;22.504;2023-11-19T23:22:51;7.05;;;4.60;;
32946;SDS011;54465;51.230;22.504;2023-11-19T23:27:52;6.78;;;4.72;;
32946;SDS011;54465;51.230;22.504;2023-11-19T23:32:52;5.95;;;4.43;;
32946;SDS011;54465;51.230;22.504;2023-11-19T23:37:53;7.35;;;4.65;;
32946;SDS011;54465;51.230;22.504;2023-11-19T23:42:53;5.90;;;4.15;;
32946;SDS011;54465;51.230;22.504;2023-11-19T23:47:54;6.53;;;4.57;;
32946;SDS011;54465;51.230;22.504;2023-11-19T23:52:55;6.90;;;4.22;;
32946;SDS011;54465;51.230;22.504;2023-11-19T23:57:55;5.20;;;3.80;;
